Time;durP1;ratioP1;P1;durP2;ratioP2;P2;SDS_P1;SDS_P2;PMS_P1;PMS_P2;Temp;Humidity;BMP_temperature;BMP_pressure;BME280_temperature;BME280_humidity;BME280_pressure;Samples;Min_cycle;Max_cycle;Signal;HPM_P1;HPM_P2
2022/05/07 00:04:28;;;;;;;6.65;6.18;;;;;;;;;;12642615;23;20295;-71
2022/05/07 00:09:29;;;;;;;6.45;5.88;;;;;;;;;;12642450;23;20264;-72
2022/05/07 00:14:30;;;;;;;6.53;5.97;;;;;;;;;;12643699;23;20252;-71
2022/05/07 00:19:32;;;;;;;6.35;5.93;;;;;;;;;;12647306;23;20917;-72
2022/05/07 00:24:33;;;;;;;5.70;5.25;;;;;;;;;;12644373;23;20795;-72
2022/05/07 00:29:34;;;;;;;6.28;5.05;;;;;;;;;;12618304;23;20200;-72
2022/05/07 00:34:35;;;;;;;7.32;6.60;;;;;;;;;;12641595;23;20703;-72
2022/05/07 00:39:36;;;;;;;6.72;6.10;;;;;;;;;;12642149;23;20512;-73
2022/05/07 00:44:37;;;;;;;6.45;6.15;;;;;;;;;;12634787;23;20180;-72
2022/05/07 00:49:39;;;;;;;7.00;6.60;;;;;;;;;;12635799;23;20667;-72
2022/05/07 00:54:44;;;;;;;5.95;5.55;;;;;;;;;;12623722;23;20192;-72
2022/05/07 00:59:45;;;;;;;5.65;5.28;;;;;;;;;;12601351;23;20181;-72
2022/05/07 01:04:47;;;;;;;8.57;5.70;;;;;;;;;;12594261;23;20295;-72
2022/05/07 01:09:48;;;;;;;6.15;5.75;;;;;;;;;;12591194;23;20188;-72
2022/05/07 01:14:49;;;;;;;6.45;5.90;;;;;;;;;;12613884;23;20952;-72
2022/05/07 01:19:52;;;;;;;6.25;5.85;;;;;;;;;;12640832;23;20280;-71
2022/05/07 01:24:53;;;;;;;6.72;6.13;;;;;;;;;;12635444;23;20244;-72
2022/05/07 01:29:54;;;;;;;6.07;5.75;;;;;;;;;;12590637;23;20181;-72
2022/05/07 01:34:55;;;;;;;5.93;5.50;;;;;;;;;;12618161;23;20233;-72
2022/05/07 01:39:58;;;;;;;7.07;6.55;;;;;;;;;;12648277;23;20207;-72
2022/05/07 01:45:01;;;;;;;7.40;5.85;;;;;;;;;;12643769;23;20262;-71
2022/05/07 01:50:03;;;;;;;6.28;5.88;;;;;;;;;;12641356;23;20189;-73
2022/05/07 01:55:06;;;;;;;6.75;6.35;;;;;;;;;;12629977;23;20197;-72
2022/05/07 02:00:08;;;;;;;6.53;6.20;;;;;;;;;;12614894;23;20283;-72
2022/05/07 02:05:12;;;;;;;8.05;7.18;;;;;;;;;;12639668;23;20336;-72
2022/05/07 02:10:14;;;;;;;7.30;6.53;;;;;;;;;;12642419;23;20199;-72
2022/05/07 02:15:16;;;;;;;6.47;6.07;;;;;;;;;;12642764;23;20193;-72
2022/05/07 02:20:17;;;;;;;7.00;6.43;;;;;;;;;;12648042;23;20177;-72
2022/05/07 02:25:18;;;;;;;6.68;6.07;;;;;;;;;;12645688;23;20197;-71
2022/05/07 02:30:19;;;;;;;6.13;5.82;;;;;;;;;;12592179;23;20650;-72
2022/05/07 02:35:22;;;;;;;7.30;6.85;;;;;;;;;;12621794;23;20216;-72
2022/05/07 02:40:23;;;;;;;7.72;7.22;;;;;;;;;;12600974;23;20586;-73
2022/05/07 02:45:25;;;;;;;7.57;7.05;;;;;;;;;;12622374;23;20192;-72
2022/05/07 02:50:29;;;;;;;7.00;6.60;;;;;;;;;;12623880;23;20555;-72
2022/05/07 02:55:30;;;;;;;10.07;7.50;;;;;;;;;;12621925;23;20211;-72
2022/05/07 03:00:32;;;;;;;7.40;6.90;;;;;;;;;;12619314;23;20189;-72
2022/05/07 03:05:33;;;;;;;6.75;6.35;;;;;;;;;;12616699;23;20177;-72
2022/05/07 03:10:34;;;;;;;8.57;7.55;;;;;;;;;;12617815;23;20188;-72
2022/05/07 03:15:37;;;;;;;8.27;7.35;;;;;;;;;;12593469;23;20288;-72
2022/05/07 03:20:46;;;;;;;8.32;7.60;;;;;;;;;;12597300;23;20191;-72
2022/05/07 03:25:52;;;;;;;8.07;7.40;;;;;;;;;;12620045;23;20202;-72
2022/05/07 03:30:53;;;;;;;8.35;7.75;;;;;;;;;;12619764;23;20208;-72
2022/05/07 03:35:56;;;;;;;9.13;8.25;;;;;;;;;;12621184;23;20272;-72
2022/05/07 03:40:57;;;;;;;8.38;7.72;;;;;;;;;;12622949;23;20212;-72
2022/05/07 03:46:04;;;;;;;6.97;6.32;;;;;;;;;;12623939;23;20177;-72
2022/05/07 03:51:05;;;;;;;6.80;6.30;;;;;;;;;;12598549;23;20181;-72
2022/05/07 03:56:07;;;;;;;6.60;6.03;;;;;;;;;;12649641;23;20192;-72
2022/05/07 04:01:10;;;;;;;7.95;7.45;;;;;;;;;;12620720;23;20201;-72
2022/05/07 04:06:12;;;;;;;8.85;8.02;;;;;;;;;;12623459;23;20328;-72
2022/05/07 04:11:13;;;;;;;7.97;7.28;;;;;;;;;;12620400;23;20217;-72
2022/05/07 04:16:15;;;;;;;8.23;7.35;;;;;;;;;;12587882;23;20192;-73
2022/05/07 04:21:30;;;;;;;8.80;8.20;;;;;;;;;;12596814;23;20234;-71
2022/05/07 04:26:40;;;;;;;8.63;8.00;;;;;;;;;;12611574;23;20313;-71
2022/05/07 04:31:42;;;;;;;10.38;8.82;;;;;;;;;;12642684;23;20212;-71
2022/05/07 04:36:43;;;;;;;8.68;8.07;;;;;;;;;;12592170;23;20690;-70
2022/05/07 04:41:48;;;;;;;9.10;8.52;;;;;;;;;;12594104;23;20213;-69
2022/05/07 04:46:53;;;;;;;9.13;8.35;;;;;;;;;;12596897;23;20240;-69
2022/05/07 04:51:54;;;;;;;12.93;8.43;;;;;;;;;;12646567;23;20222;-69
2022/05/07 04:57:00;;;;;;;9.30;8.05;;;;;;;;;;12596191;23;20213;-69
2022/05/07 05:02:13;;;;;;;8.45;7.50;;;;;;;;;;12618419;23;20207;-69
2022/05/07 05:07:21;;;;;;;8.77;8.05;;;;;;;;;;12615701;23;20258;-70
2022/05/07 05:12:23;;;;;;;8.70;7.75;;;;;;;;;;12596591;23;20678;-70
2022/05/07 05:17:26;;;;;;;8.50;7.70;;;;;;;;;;12621836;23;20185;-70
2022/05/07 05:22:27;;;;;;;9.35;7.22;;;;;;;;;;12622699;23;20237;-70
2022/05/07 05:27:30;;;;;;;7.65;7.13;;;;;;;;;;12618229;23;20605;-69
2022/05/07 05:32:31;;;;;;;7.97;7.18;;;;;;;;;;12614017;23;20207;-70
2022/05/07 05:37:36;;;;;;;7.10;6.45;;;;;;;;;;12617566;23;20849;-70
2022/05/07 05:42:37;;;;;;;6.50;6.07;;;;;;;;;;12642673;23;20185;-70
2022/05/07 05:47:39;;;;;;;8.68;6.32;;;;;;;;;;12615339;23;20655;-73
2022/05/07 05:52:40;;;;;;;5.70;5.30;;;;;;;;;;12623154;23;20846;-73
2022/05/07 05:57:44;;;;;;;5.57;5.07;;;;;;;;;;12618664;23;20196;-73
2022/05/07 06:02:45;;;;;;;4.85;4.60;;;;;;;;;;12595024;23;20295;-72
2022/05/07 06:07:52;;;;;;;4.20;4.10;;;;;;;;;;12612935;23;20223;-73
2022/05/07 06:12:57;;;;;;;5.15;4.78;;;;;;;;;;12618210;23;20244;-73
2022/05/07 06:17:59;;;;;;;4.60;4.38;;;;;;;;;;12615230;23;20170;-73
2022/05/07 06:23:01;;;;;;;4.70;4.50;;;;;;;;;;12641822;23;20562;-73
2022/05/07 06:28:10;;;;;;;7.57;4.88;;;;;;;;;;12593177;23;20196;-73
2022/05/07 06:33:14;;;;;;;4.28;3.97;;;;;;;;;;12618494;23;20544;-73
2022/05/07 06:38:24;;;;;;;4.93;4.50;;;;;;;;;;12619158;23;20181;-73
2022/05/07 06:43:26;;;;;;;4.70;4.10;;;;;;;;;;12613989;23;20195;-73
2022/05/07 06:48:41;;;;;;;5.28;4.78;;;;;;;;;;12592911;23;20188;-73
2022/05/07 06:53:47;;;;;;;5.18;4.80;;;;;;;;;;12622502;23;20677;-73
2022/05/07 06:58:49;;;;;;;6.63;4.93;;;;;;;;;;12622337;23;20228;-73
2022/05/07 07:03:54;;;;;;;4.50;4.18;;;;;;;;;;12642202;23;20287;-73
2022/05/07 07:08:56;;;;;;;4.75;4.45;;;;;;;;;;12603310;23;20181;-72
2022/05/07 07:13:57;;;;;;;5.03;4.65;;;;;;;;;;12595112;23;20201;-73
2022/05/07 07:18:58;;;;;;;5.53;5.03;;;;;;;;;;12617932;23;20291;-72
2022/05/07 07:23:59;;;;;;;6.85;6.10;;;;;;;;;;12615801;23;20277;-74
2022/05/07 07:29:00;;;;;;;7.22;6.40;;;;;;;;;;12640789;23;21015;-73
2022/05/07 07:34:04;;;;;;;12.05;6.35;;;;;;;;;;12619062;23;20216;-73
2022/05/07 07:39:07;;;;;;;6.35;5.85;;;;;;;;;;12640436;23;20184;-73
2022/05/07 07:44:08;;;;;;;6.18;5.57;;;;;;;;;;12642046;23;20184;-73
2022/05/07 07:49:09;;;;;;;6.50;5.85;;;;;;;;;;12632891;23;20185;-73
2022/05/07 07:54:11;;;;;;;6.20;5.70;;;;;;;;;;12640679;23;20271;-73
2022/05/07 07:59:12;;;;;;;5.80;5.05;;;;;;;;;;12645241;23;20180;-74
2022/05/07 08:04:13;;;;;;;6.57;6.13;;;;;;;;;;12616639;23;20208;-74
2022/05/07 08:14:34;;;;;;;6.47;5.78;;;;;;;;;;12615040;23;20193;-73
2022/05/07 08:19:36;;;;;;;7.43;5.82;;;;;;;;;;12594664;23;20944;-74
2022/05/07 08:24:37;;;;;;;6.70;5.60;;;;;;;;;;12648682;23;20200;-73
2022/05/07 08:29:38;;;;;;;9.93;6.32;;;;;;;;;;12628519;23;20618;-74
2022/05/07 08:34:41;;;;;;;8.52;5.50;;;;;;;;;;12643627;23;20205;-74
2022/05/07 08:39:42;;;;;;;7.05;5.90;;;;;;;;;;12613690;23;20267;-73
2022/05/07 08:44:43;;;;;;;7.35;5.35;;;;;;;;;;12645522;23;20176;-74
2022/05/07 08:49:44;;;;;;;5.93;5.43;;;;;;;;;;12643237;23;20682;-73
2022/05/07 08:54:46;;;;;;;40.90;7.93;;;;;;;;;;12621201;23;20200;-73
2022/05/07 08:59:53;;;;;;;5.38;4.88;;;;;;;;;;12639251;23;20240;-74
2022/05/07 09:04:55;;;;;;;5.60;5.20;;;;;;;;;;12612420;23;20285;-74
2022/05/07 09:09:56;;;;;;;6.38;4.93;;;;;;;;;;12641283;23;20189;-73
2022/05/07 09:15:01;;;;;;;5.32;4.68;;;;;;;;;;12642481;23;20188;-73
2022/05/07 09:20:12;;;;;;;7.43;5.00;;;;;;;;;;12648727;23;20181;-73
2022/05/07 09:25:18;;;;;;;5.85;4.95;;;;;;;;;;12648553;23;20188;-73
2022/05/07 09:30:27;;;;;;;4.40;4.15;;;;;;;;;;12644972;23;20623;-73
2022/05/07 09:35:47;;;;;;;5.53;4.75;;;;;;;;;;12642785;23;20537;-73
2022/05/07 09:40:48;;;;;;;5.43;4.65;;;;;;;;;;12640523;23;20168;-73
2022/05/07 09:45:49;;;;;;;5.78;5.35;;;;;;;;;;12619798;23;20690;-73
2022/05/07 09:50:52;;;;;;;7.50;6.38;;;;;;;;;;12619414;23;20185;-72
2022/05/07 10:01:20;;;;;;;6.05;5.28;;;;;;;;;;12643973;23;20204;-74
2022/05/07 10:06:21;;;;;;;6.45;5.85;;;;;;;;;;12646921;23;20173;-74
2022/05/07 10:11:23;;;;;;;6.53;5.22;;;;;;;;;;12623214;23;20240;-73
2022/05/07 10:16:28;;;;;;;6.05;5.47;;;;;;;;;;12616468;23;20200;-74
2022/05/07 10:21:29;;;;;;;7.30;5.32;;;;;;;;;;12646909;23;20264;-73
2022/05/07 10:26:39;;;;;;;7.70;6.15;;;;;;;;;;12641837;23;20250;-73
2022/05/07 10:31:44;;;;;;;6.93;6.35;;;;;;;;;;12638387;23;20205;-74
2022/05/07 10:36:45;;;;;;;7.50;5.70;;;;;;;;;;12643119;23;20184;-74
2022/05/07 10:41:49;;;;;;;5.97;4.90;;;;;;;;;;12647828;23;20185;-74
2022/05/07 10:46:51;;;;;;;5.93;5.35;;;;;;;;;;12645448;23;20181;-74
2022/05/07 10:51:52;;;;;;;6.38;5.80;;;;;;;;;;12645657;23;20219;-74
2022/05/07 10:56:54;;;;;;;6.40;5.85;;;;;;;;;;12598359;23;20181;-75
2022/05/07 11:02:06;;;;;;;5.18;4.88;;;;;;;;;;12618078;23;20994;-75
2022/05/07 11:07:07;;;;;;;6.60;6.03;;;;;;;;;;12642367;23;20836;-75
2022/05/07 11:12:17;;;;;;;5.75;5.45;;;;;;;;;;12645246;23;20276;-74
2022/05/07 11:17:28;;;;;;;6.00;5.60;;;;;;;;;;12647815;23;20185;-74
2022/05/07 11:22:32;;;;;;;6.30;5.50;;;;;;;;;;12650740;23;20614;-74
2022/05/07 11:27:33;;;;;;;8.35;6.40;;;;;;;;;;12650948;23;20204;-75
2022/05/07 11:32:41;;;;;;;7.30;6.60;;;;;;;;;;12647678;23;20264;-75
2022/05/07 11:37:43;;;;;;;5.35;4.95;;;;;;;;;;12649608;23;20184;-74
2022/05/07 11:42:46;;;;;;;7.20;6.60;;;;;;;;;;12652356;23;20185;-74
2022/05/07 11:48:07;;;;;;;7.95;6.82;;;;;;;;;;12649999;23;20181;-74
2022/05/07 11:53:13;;;;;;;9.30;8.25;;;;;;;;;;12621847;23;20674;-73
2022/05/07 11:58:16;;;;;;;7.90;7.25;;;;;;;;;;12631154;23;20173;-73
2022/05/07 12:03:19;;;;;;;8.15;7.22;;;;;;;;;;12622106;23;20208;-75
2022/05/07 12:08:21;;;;;;;7.45;6.90;;;;;;;;;;12650943;23;20847;-73
2022/05/07 12:13:24;;;;;;;12.98;8.32;;;;;;;;;;12650933;23;20264;-74
2022/05/07 12:18:25;;;;;;;9.88;9.05;;;;;;;;;;12625423;23;20192;-74
2022/05/07 12:34:06;;;;;;;12.48;11.35;;;;;;;;;;12647902;23;20283;-74
2022/05/07 12:39:07;;;;;;;12.55;10.90;;;;;;;;;;12648482;23;20256;-74
2022/05/07 12:44:08;;;;;;;10.75;9.80;;;;;;;;;;12644863;23;20200;-74
2022/05/07 12:49:09;;;;;;;11.52;9.02;;;;;;;;;;12647180;23;20192;-74
2022/05/07 12:54:10;;;;;;;10.30;9.43;;;;;;;;;;12646907;23;20192;-74
2022/05/07 12:59:13;;;;;;;9.88;8.95;;;;;;;;;;12623767;23;20208;-74
2022/05/07 13:04:14;;;;;;;7.63;7.03;;;;;;;;;;12647675;23;20209;-74
2022/05/07 13:09:16;;;;;;;6.63;6.20;;;;;;;;;;12646704;23;20232;-74
2022/05/07 13:14:17;;;;;;;6.55;5.43;;;;;;;;;;12650481;23;20235;-74
2022/05/07 13:19:18;;;;;;;6.35;5.95;;;;;;;;;;12645670;23;20173;-74
2022/05/07 13:24:19;;;;;;;7.47;6.10;;;;;;;;;;12645617;23;20193;-74
2022/05/07 13:29:20;;;;;;;7.30;6.68;;;;;;;;;;12643966;23;20654;-74
2022/05/07 13:34:22;;;;;;;7.28;6.80;;;;;;;;;;12645570;23;20380;-74
2022/05/07 13:39:25;;;;;;;10.65;7.80;;;;;;;;;;12622948;23;20247;-74
2022/05/07 13:44:26;;;;;;;8.05;7.32;;;;;;;;;;12650448;23;20192;-74
2022/05/07 13:49:27;;;;;;;9.65;6.10;;;;;;;;;;12650572;23;20179;-74
2022/05/07 13:54:28;;;;;;;7.20;5.32;;;;;;;;;;12620367;23;20942;-74
2022/05/07 13:59:31;;;;;;;5.93;5.35;;;;;;;;;;12651766;23;20256;-74
2022/05/07 14:04:32;;;;;;;5.32;4.78;;;;;;;;;;12621939;23;20205;-74
2022/05/07 14:09:33;;;;;;;4.85;4.25;;;;;;;;;;12621063;23;20255;-74
2022/05/07 14:14:34;;;;;;;3.50;3.30;;;;;;;;;;12651229;23;20990;-73
2022/05/07 14:19:36;;;;;;;3.60;3.30;;;;;;;;;;12621841;23;20176;-74
2022/05/07 14:24:38;;;;;;;6.18;3.95;;;;;;;;;;12652866;23;20185;-74
2022/05/07 14:29:39;;;;;;;4.45;3.30;;;;;;;;;;12649338;23;20279;-73
2022/05/07 14:34:40;;;;;;;2.55;2.40;;;;;;;;;;12627015;23;20946;-74
2022/05/07 14:39:41;;;;;;;5.47;2.47;;;;;;;;;;12625597;23;20212;-74
2022/05/07 14:44:43;;;;;;;20.20;2.72;;;;;;;;;;12651458;23;20180;-74
2022/05/07 14:49:44;;;;;;;2.30;1.30;;;;;;;;;;12649328;23;20180;-74
2022/05/07 14:54:45;;;;;;;10.40;2.10;;;;;;;;;;12647852;23;20208;-74
2022/05/07 14:59:46;;;;;;;2.30;2.10;;;;;;;;;;12647308;23;20217;-74
2022/05/07 15:04:47;;;;;;;1.55;1.45;;;;;;;;;;12649058;23;20217;-75
2022/05/07 15:15:08;;;;;;;2.55;1.70;;;;;;;;;;12643420;23;20227;-74
2022/05/07 15:20:10;;;;;;;3.05;2.03;;;;;;;;;;12642973;23;20181;-74
2022/05/07 15:25:15;;;;;;;2.42;1.55;;;;;;;;;;12616259;23;20200;-74
2022/05/07 15:30:17;;;;;;;2.42;1.65;;;;;;;;;;12643497;23;20188;-73
2022/05/07 15:40:38;;;;;;;4.20;2.70;;;;;;;;;;12643387;23;20200;-73
2022/05/07 15:45:39;;;;;;;4.40;4.10;;;;;;;;;;12637242;23;20184;-72
2022/05/07 15:50:41;;;;;;;5.25;4.95;;;;;;;;;;12637957;23;20542;-73
2022/05/07 15:55:43;;;;;;;4.35;4.05;;;;;;;;;;12638813;23;20197;-73
2022/05/07 16:00:44;;;;;;;5.32;5.13;;;;;;;;;;12647537;23;20193;-73
2022/05/07 16:05:45;;;;;;;5.65;5.32;;;;;;;;;;12646199;23;20189;-73
2022/05/07 16:10:46;;;;;;;5.68;5.20;;;;;;;;;;12649352;23;20236;-73
2022/05/07 16:15:49;;;;;;;4.60;4.47;;;;;;;;;;12619010;23;20796;-73
2022/05/07 16:20:50;;;;;;;3.90;3.78;;;;;;;;;;12636466;23;20193;-72
2022/05/07 16:25:51;;;;;;;3.97;3.65;;;;;;;;;;12642728;23;20196;-73
2022/05/07 16:30:54;;;;;;;2.90;2.70;;;;;;;;;;12637957;23;20200;-73
2022/05/07 16:35:57;;;;;;;2.70;2.70;;;;;;;;;;12636431;23;20950;-73
2022/05/07 16:40:58;;;;;;;2.55;2.42;;;;;;;;;;12637324;23;20193;-74
2022/05/07 16:45:59;;;;;;;5.30;3.55;;;;;;;;;;12640302;23;20181;-72
2022/05/07 16:51:00;;;;;;;3.22;3.03;;;;;;;;;;12635465;23;20184;-73
2022/05/07 16:56:03;;;;;;;2.92;2.78;;;;;;;;;;12640845;23;20930;-73
2022/05/07 17:01:05;;;;;;;3.22;3.05;;;;;;;;;;12646971;23;20794;-73
2022/05/07 17:06:06;;;;;;;2.10;2.00;;;;;;;;;;12646005;23;20211;-74
2022/05/07 17:11:07;;;;;;;1.58;1.48;;;;;;;;;;12645019;23;20395;-73
2022/05/07 17:16:09;;;;;;;2.53;2.33;;;;;;;;;;12645197;23;20189;-73
2022/05/07 17:21:11;;;;;;;1.55;1.55;;;;;;;;;;12644489;23;20236;-73
2022/05/07 17:26:12;;;;;;;2.20;2.10;;;;;;;;;;12648546;23;20211;-74
2022/05/07 17:31:13;;;;;;;2.88;2.78;;;;;;;;;;12647719;23;20211;-74
2022/05/07 17:36:14;;;;;;;1.45;1.45;;;;;;;;;;12620776;23;20237;-74
2022/05/07 17:41:16;;;;;;;2.20;2.20;;;;;;;;;;12646509;23;20172;-74
2022/05/07 17:46:17;;;;;;;1.40;1.40;;;;;;;;;;12620306;23;20188;-73
2022/05/07 17:51:18;;;;;;;1.40;1.40;;;;;;;;;;12640065;23;20193;-74
2022/05/07 17:56:20;;;;;;;1.17;1.17;;;;;;;;;;12631874;23;20200;-73
2022/05/07 18:01:21;;;;;;;2.13;2.03;;;;;;;;;;12629557;23;20273;-74
2022/05/07 18:06:24;;;;;;;1.77;1.67;;;;;;;;;;12633678;23;20212;-74
2022/05/07 18:11:25;;;;;;;1.60;1.60;;;;;;;;;;12635490;23;20187;-74
2022/05/07 18:16:26;;;;;;;3.45;1.67;;;;;;;;;;12634980;23;20546;-73
2022/05/07 18:21:27;;;;;;;1.80;1.80;;;;;;;;;;12611548;23;20254;-73
2022/05/07 18:26:29;;;;;;;1.60;1.60;;;;;;;;;;12604927;23;20275;-73
2022/05/07 18:31:30;;;;;;;2.08;1.80;;;;;;;;;;12634122;23;20206;-74
2022/05/07 18:47:10;;;;;;;3.10;2.90;;;;;;;;;;12639359;23;20278;-73
2022/05/07 18:52:12;;;;;;;1.67;1.67;;;;;;;;;;12610076;23;20189;-73
2022/05/07 19:02:36;;;;;;;2.75;2.55;;;;;;;;;;12644980;23;20204;-70
2022/05/07 19:07:37;;;;;;;6.10;5.80;;;;;;;;;;12617507;23;20177;-70
2022/05/07 19:12:38;;;;;;;4.95;4.68;;;;;;;;;;12646843;23;20199;-71
2022/05/07 19:17:39;;;;;;;4.88;4.68;;;;;;;;;;12596935;23;20280;-72
2022/05/07 19:22:41;;;;;;;5.00;4.75;;;;;;;;;;12645360;23;20176;-72
2022/05/07 19:27:42;;;;;;;5.60;4.97;;;;;;;;;;12619448;23;20236;-72
2022/05/07 19:32:44;;;;;;;7.03;6.60;;;;;;;;;;12621476;23;20212;-71
2022/05/07 19:37:45;;;;;;;5.80;5.50;;;;;;;;;;12621967;23;20196;-72
2022/05/07 19:42:46;;;;;;;6.20;5.88;;;;;;;;;;12641184;23;20636;-72
2022/05/07 19:47:47;;;;;;;10.85;10.05;;;;;;;;;;12607634;23;20181;-70
2022/05/07 19:52:48;;;;;;;7.00;6.68;;;;;;;;;;12591612;23;20215;-72
2022/05/07 19:57:51;;;;;;;8.02;7.43;;;;;;;;;;12616626;23;20176;-71
2022/05/07 20:02:52;;;;;;;7.28;6.68;;;;;;;;;;12613824;23;21172;-71
2022/05/07 20:07:56;;;;;;;6.10;5.80;;;;;;;;;;12614426;23;20204;-72
2022/05/07 20:12:58;;;;;;;6.40;5.95;;;;;;;;;;12643667;23;20201;-71
2022/05/07 20:18:00;;;;;;;6.70;6.15;;;;;;;;;;12647047;23;20181;-71
2022/05/07 20:23:01;;;;;;;7.28;6.78;;;;;;;;;;12622784;23;20177;-72
2022/05/07 20:28:03;;;;;;;7.10;6.60;;;;;;;;;;12623270;23;20976;-71
2022/05/07 20:33:05;;;;;;;7.82;7.15;;;;;;;;;;12641594;23;20208;-71
2022/05/07 20:38:06;;;;;;;7.50;6.82;;;;;;;;;;12616976;23;20177;-71
2022/05/07 20:46:25;;;;;;;7.10;6.75;;;;;;;;;;12617243;23;20593;-71
2022/05/07 20:48:30;;;;;;;7.57;6.85;;;;;;;;;;12614084;23;20200;-72
2022/05/07 20:53:31;;;;;;;7.13;6.68;;;;;;;;;;12617924;23;20195;-71
2022/05/07 20:58:32;;;;;;;7.22;6.75;;;;;;;;;;12615057;23;20188;-71
2022/05/07 21:03:34;;;;;;;7.15;6.55;;;;;;;;;;12644842;23;20212;-70
2022/05/07 21:08:35;;;;;;;7.20;6.60;;;;;;;;;;12616754;23;20669;-70
2022/05/07 21:13:37;;;;;;;6.38;6.07;;;;;;;;;;12615132;23;20257;-70
2022/05/07 21:18:38;;;;;;;6.28;5.88;;;;;;;;;;12642427;23;20176;-69
2022/05/07 21:23:40;;;;;;;6.15;5.85;;;;;;;;;;12644600;23;20207;-71
2022/05/07 21:28:41;;;;;;;6.85;6.45;;;;;;;;;;12619281;23;20601;-71
2022/05/07 21:33:42;;;;;;;6.90;6.13;;;;;;;;;;12637130;23;20216;-70
2022/05/07 21:38:44;;;;;;;6.95;6.45;;;;;;;;;;12599931;23;20208;-70
2022/05/07 21:43:46;;;;;;;8.00;7.22;;;;;;;;;;12636718;23;20754;-69
2022/05/07 21:48:47;;;;;;;9.30;8.10;;;;;;;;;;12634318;23;20187;-70
2022/05/07 21:53:49;;;;;;;9.00;8.25;;;;;;;;;;12639889;23;20793;-70
2022/05/07 21:58:50;;;;;;;8.73;8.05;;;;;;;;;;12633218;23;20180;-69
2022/05/07 22:03:51;;;;;;;9.52;8.02;;;;;;;;;;12631659;23;20211;-71
2022/05/07 22:08:52;;;;;;;9.65;8.85;;;;;;;;;;12609939;23;20177;-70
2022/05/07 22:13:54;;;;;;;8.65;7.95;;;;;;;;;;12640198;23;20215;-70
2022/05/07 22:18:55;;;;;;;9.68;8.82;;;;;;;;;;12643051;23;20176;-70
2022/05/07 22:23:56;;;;;;;11.57;8.88;;;;;;;;;;12646348;23;20307;-70
2022/05/07 22:28:58;;;;;;;9.20;8.43;;;;;;;;;;12646298;23;20200;-71
2022/05/07 22:33:59;;;;;;;9.95;8.88;;;;;;;;;;12647046;23;20215;-70
2022/05/07 22:39:00;;;;;;;10.13;9.32;;;;;;;;;;12622534;23;20177;-69
2022/05/07 22:44:03;;;;;;;9.75;8.98;;;;;;;;;;12619337;23;20191;-70
2022/05/07 22:49:04;;;;;;;9.52;8.63;;;;;;;;;;12645737;23;20181;-70
2022/05/07 22:54:05;;;;;;;9.57;8.75;;;;;;;;;;12643540;23;20193;-69
2022/05/07 22:59:07;;;;;;;9.55;7.97;;;;;;;;;;12645537;23;20187;-70
2022/05/07 23:04:08;;;;;;;8.50;7.85;;;;;;;;;;12643373;23;20216;-70
2022/05/07 23:09:09;;;;;;;10.05;9.05;;;;;;;;;;12617884;23;20546;-70
2022/05/07 23:14:10;;;;;;;12.15;9.98;;;;;;;;;;12641917;23;20196;-70
2022/05/07 23:19:11;;;;;;;12.40;10.68;;;;;;;;;;12617067;23;20185;-70
2022/05/07 23:24:12;;;;;;;12.30;11.27;;;;;;;;;;12644035;23;20174;-70
2022/05/07 23:29:13;;;;;;;10.57;9.73;;;;;;;;;;12639157;23;20196;-70
2022/05/07 23:34:14;;;;;;;11.88;10.77;;;;;;;;;;12618504;23;20209;-70
2022/05/07 23:39:15;;;;;;;11.30;10.15;;;;;;;;;;12649633;23;20256;-71
2022/05/07 23:44:17;;;;;;;11.25;10.07;;;;;;;;;;12646223;23;20644;-71
2022/05/07 23:49:18;;;;;;;11.13;10.05;;;;;;;;;;12644060;23;20184;-70
2022/05/07 23:54:19;;;;;;;8.95;8.20;;;;;;;;;;12616249;23;20193;-70
2022/05/07 23:59:20;;;;;;;9.60;8.57;;;;;;;;;;12611273;23;20184;-70
